Time;durP1;ratioP1;P1;durP2;ratioP2;P2;SDS_P1;SDS_P2;PMS_P1;PMS_P2;Temp;Humidity;BMP_temperature;BMP_pressure;BME280_temperature;BME280_humidity;BME280_pressure;Samples;Min_cycle;Max_cycle;Signal;HPM_P1;HPM_P2
2021/05/30 00:01:51;;;;;;;41.70;20.20;;;;;;;;;;5116958;28;20480;-64
2021/05/30 00:04:17;;;;;;;30.50;17.08;;;;;;;;;;5117219;28;20019;-64
2021/05/30 00:06:43;;;;;;;35.22;19.80;;;;;;;;;;5117242;28;20032;-65
2021/05/30 00:09:08;;;;;;;33.92;18.77;;;;;;;;;;5117093;28;20043;-64
2021/05/30 00:11:34;;;;;;;39.05;19.90;;;;;;;;;;5117161;28;20115;-64
2021/05/30 00:14:00;;;;;;;32.58;18.08;;;;;;;;;;5117260;28;20157;-64
2021/05/30 00:16:25;;;;;;;39.38;19.48;;;;;;;;;;5117255;28;20110;-62
2021/05/30 00:18:50;;;;;;;36.42;18.52;;;;;;;;;;5116891;28;20020;-63
2021/05/30 00:21:16;;;;;;;36.20;19.08;;;;;;;;;;5117306;28;20020;-62
2021/05/30 00:23:41;;;;;;;49.05;20.50;;;;;;;;;;5116831;28;20498;-62
2021/05/30 00:26:06;;;;;;;35.95;18.75;;;;;;;;;;5117057;28;20026;-63
2021/05/30 00:28:31;;;;;;;37.67;19.17;;;;;;;;;;5116576;28;20031;-62
2021/05/30 00:30:57;;;;;;;29.08;16.33;;;;;;;;;;5097168;28;20040;-62
2021/05/30 00:33:22;;;;;;;31.13;17.38;;;;;;;;;;5096601;28;20027;-63
2021/05/30 00:35:47;;;;;;;32.80;17.73;;;;;;;;;;5096457;28;20438;-63
2021/05/30 00:38:12;;;;;;;31.75;17.02;;;;;;;;;;5095920;28;20067;-62
2021/05/30 00:40:40;;;;;;;38.47;18.02;;;;;;;;;;5096329;28;20026;-63
2021/05/30 00:43:06;;;;;;;44.80;19.92;;;;;;;;;;5096054;28;20024;-62
2021/05/30 00:45:31;;;;;;;37.58;17.35;;;;;;;;;;5096217;28;20043;-63
2021/05/30 00:47:56;;;;;;;30.17;16.58;;;;;;;;;;5096038;28;20072;-63
2021/05/30 00:50:21;;;;;;;34.28;17.17;;;;;;;;;;5096148;28;20043;-62
2021/05/30 00:52:47;;;;;;;32.10;16.95;;;;;;;;;;5094856;28;20533;-63
2021/05/30 00:55:12;;;;;;;27.70;15.98;;;;;;;;;;5096379;28;20020;-62
2021/05/30 00:57:38;;;;;;;38.55;16.92;;;;;;;;;;5095844;28;20024;-62
2021/05/30 01:00:04;;;;;;;30.33;16.05;;;;;;;;;;5095894;28;20028;-62
2021/05/30 01:02:30;;;;;;;32.83;17.65;;;;;;;;;;5095767;28;20024;-64
2021/05/30 01:04:55;;;;;;;39.83;18.50;;;;;;;;;;5095874;28;20020;-64
2021/05/30 01:07:20;;;;;;;38.30;17.17;;;;;;;;;;5095734;28;20028;-65
2021/05/30 01:09:47;;;;;;;42.45;17.92;;;;;;;;;;5095255;28;20048;-64
2021/05/30 01:12:13;;;;;;;29.95;16.23;;;;;;;;;;5095678;28;20031;-64
2021/05/30 01:14:38;;;;;;;32.65;15.55;;;;;;;;;;5110099;28;20460;-64
2021/05/30 01:17:06;;;;;;;31.58;16.88;;;;;;;;;;5116209;28;20020;-62
2021/05/30 01:19:32;;;;;;;33.30;17.13;;;;;;;;;;5116016;28;20023;-62
2021/05/30 01:21:59;;;;;;;40.75;17.15;;;;;;;;;;5115758;28;20525;-63
2021/05/30 01:24:24;;;;;;;32.72;15.18;;;;;;;;;;5115818;28;20073;-62
2021/05/30 01:26:49;;;;;;;32.10;16.35;;;;;;;;;;5114833;28;20032;-62
2021/05/30 01:29:15;;;;;;;38.38;17.52;;;;;;;;;;5115370;28;20106;-62
2021/05/30 01:31:40;;;;;;;35.10;16.67;;;;;;;;;;5115677;28;20031;-62
2021/05/30 01:34:05;;;;;;;40.17;17.05;;;;;;;;;;5115670;28;20378;-62
2021/05/30 01:36:31;;;;;;;34.72;17.67;;;;;;;;;;5115593;28;20043;-62
2021/05/30 01:38:57;;;;;;;32.05;16.67;;;;;;;;;;5115355;28;20019;-62
2021/05/30 01:41:22;;;;;;;31.42;16.73;;;;;;;;;;5115361;28;20098;-63
2021/05/30 01:43:47;;;;;;;28.35;15.65;;;;;;;;;;5115165;28;20097;-62
2021/05/30 01:46:13;;;;;;;41.13;17.67;;;;;;;;;;5115253;28;20085;-63
2021/05/30 01:48:38;;;;;;;34.38;17.30;;;;;;;;;;5115331;28;20024;-62
2021/05/30 01:51:03;;;;;;;31.55;15.85;;;;;;;;;;5115286;28;20092;-62
2021/05/30 01:53:52;;;;;;;27.55;15.00;;;;;;;;;;5115221;28;20019;-63
2021/05/30 01:59:02;;;;;;;50.55;18.75;;;;;;;;;;5114490;28;20904;-62
2021/05/30 02:01:28;;;;;;;39.20;18.15;;;;;;;;;;5115177;28;20355;-65
2021/05/30 02:03:53;;;;;;;42.15;17.88;;;;;;;;;;5114496;28;20063;-64
2021/05/30 02:06:20;;;;;;;36.03;17.30;;;;;;;;;;5115144;28;20026;-64
2021/05/30 02:08:46;;;;;;;33.85;16.42;;;;;;;;;;5114756;28;20026;-64
2021/05/30 02:11:13;;;;;;;30.65;16.10;;;;;;;;;;5114547;28;20487;-65
2021/05/30 02:13:38;;;;;;;31.10;16.42;;;;;;;;;;5114678;28;20019;-64
2021/05/30 02:16:04;;;;;;;31.52;16.65;;;;;;;;;;5115001;28;20030;-64
2021/05/30 02:18:29;;;;;;;33.22;16.23;;;;;;;;;;5114709;28;20043;-64
2021/05/30 02:20:54;;;;;;;35.63;17.27;;;;;;;;;;5114720;28;20016;-64
2021/05/30 02:23:20;;;;;;;36.13;17.52;;;;;;;;;;5114713;28;20464;-64
2021/05/30 02:25:45;;;;;;;39.88;16.75;;;;;;;;;;5114593;28;20039;-64
2021/05/30 02:28:10;;;;;;;29.45;15.35;;;;;;;;;;5114469;28;20364;-62
2021/05/30 02:30:36;;;;;;;32.53;15.65;;;;;;;;;;5097555;28;20109;-63
2021/05/30 02:33:03;;;;;;;33.03;16.95;;;;;;;;;;5094032;28;20032;-62
2021/05/30 02:35:28;;;;;;;27.80;14.95;;;;;;;;;;5094168;28;20020;-63
2021/05/30 02:37:54;;;;;;;34.88;17.67;;;;;;;;;;5093989;28;20020;-62
2021/05/30 02:40:19;;;;;;;37.55;16.52;;;;;;;;;;5094097;28;20036;-62
2021/05/30 02:42:44;;;;;;;31.42;16.42;;;;;;;;;;5093828;28;20051;-62
2021/05/30 02:45:09;;;;;;;45.70;19.00;;;;;;;;;;5094060;28;20016;-62
2021/05/30 02:47:35;;;;;;;35.05;16.80;;;;;;;;;;5093696;28;20028;-62
2021/05/30 02:50:00;;;;;;;37.30;17.25;;;;;;;;;;5093758;28;20104;-62
2021/05/30 02:52:26;;;;;;;40.15;18.42;;;;;;;;;;5093814;28;20012;-62
2021/05/30 02:54:51;;;;;;;33.28;16.17;;;;;;;;;;5093417;28;20109;-62
2021/05/30 02:57:17;;;;;;;36.67;17.20;;;;;;;;;;5093765;28;20095;-63
2021/05/30 02:59:42;;;;;;;34.45;17.08;;;;;;;;;;5093327;28;20024;-62
2021/05/30 03:02:07;;;;;;;32.67;16.95;;;;;;;;;;5093783;28;20024;-62
2021/05/30 03:04:33;;;;;;;41.60;18.17;;;;;;;;;;5093438;28;20376;-63
2021/05/30 03:07:00;;;;;;;36.63;17.73;;;;;;;;;;5093640;28;20016;-62
2021/05/30 03:09:25;;;;;;;37.90;16.92;;;;;;;;;;5093346;28;20044;-64
2021/05/30 03:11:50;;;;;;;32.97;16.55;;;;;;;;;;5093398;28;20020;-64
2021/05/30 03:14:15;;;;;;;31.80;16.98;;;;;;;;;;5093148;28;20464;-64
2021/05/30 03:16:41;;;;;;;31.63;16.08;;;;;;;;;;5093035;28;20032;-64
2021/05/30 03:19:06;;;;;;;36.85;17.05;;;;;;;;;;5093060;28;20016;-64
2021/05/30 03:21:31;;;;;;;38.42;16.73;;;;;;;;;;5093762;28;20020;-65
2021/05/30 03:23:56;;;;;;;29.08;15.63;;;;;;;;;;5093247;28;20060;-64
2021/05/30 03:26:22;;;;;;;32.50;15.88;;;;;;;;;;5093332;28;20455;-65
2021/05/30 03:28:47;;;;;;;38.28;17.20;;;;;;;;;;5094855;28;20020;-64
2021/05/30 03:31:13;;;;;;;36.33;16.65;;;;;;;;;;5113603;28;20477;-64
2021/05/30 03:33:39;;;;;;;47.53;18.23;;;;;;;;;;5113490;28;20016;-64
2021/05/30 03:36:07;;;;;;;36.75;17.35;;;;;;;;;;5113645;28;20062;-65
2021/05/30 03:38:33;;;;;;;36.28;16.38;;;;;;;;;;5113105;28;20411;-64
2021/05/30 03:41:03;;;;;;;34.65;16.65;;;;;;;;;;5104657;28;20016;-64
2021/05/30 03:43:29;;;;;;;33.25;16.25;;;;;;;;;;5092990;28;20024;-64
2021/05/30 03:45:54;;;;;;;34.05;17.30;;;;;;;;;;5093090;28;20024;-64
2021/05/30 03:48:19;;;;;;;34.10;15.98;;;;;;;;;;5092764;28;20012;-65
2021/05/30 03:50:49;;;;;;;36.45;17.05;;;;;;;;;;5093017;28;20105;-62
2021/05/30 03:53:14;;;;;;;39.47;18.77;;;;;;;;;;5093205;28;20032;-63
2021/05/30 03:55:40;;;;;;;34.88;16.73;;;;;;;;;;5093057;28;20372;-63
2021/05/30 03:58:05;;;;;;;34.67;15.30;;;;;;;;;;5093043;28;20099;-63
2021/05/30 04:00:30;;;;;;;41.60;17.35;;;;;;;;;;5093091;28;20020;-62
2021/05/30 04:02:55;;;;;;;36.33;17.23;;;;;;;;;;5074627;28;20020;-63
2021/05/30 04:05:21;;;;;;;36.03;16.65;;;;;;;;;;5093175;28;20555;-62
2021/05/30 04:07:46;;;;;;;30.08;16.45;;;;;;;;;;5092501;28;20078;-63
2021/05/30 04:10:12;;;;;;;31.20;15.70;;;;;;;;;;5092931;28;20404;-62
2021/05/30 04:12:40;;;;;;;27.60;15.00;;;;;;;;;;5092835;28;20055;-62
2021/05/30 04:15:07;;;;;;;32.80;16.02;;;;;;;;;;5092892;28;20036;-62
2021/05/30 04:17:32;;;;;;;34.35;16.33;;;;;;;;;;5093101;28;20074;-63
2021/05/30 04:19:57;;;;;;;33.58;15.82;;;;;;;;;;5092876;28;20399;-62
2021/05/30 04:22:23;;;;;;;37.05;17.10;;;;;;;;;;5092788;28;20040;-62
2021/05/30 04:24:48;;;;;;;40.80;18.17;;;;;;;;;;5092750;28;20512;-63
2021/05/30 04:27:13;;;;;;;29.63;15.48;;;;;;;;;;5095269;28;20012;-62
2021/05/30 04:29:39;;;;;;;46.38;17.10;;;;;;;;;;5104820;28;20541;-63
2021/05/30 04:32:04;;;;;;;35.75;16.75;;;;;;;;;;5116876;28;20020;-63
2021/05/30 04:34:29;;;;;;;32.78;15.35;;;;;;;;;;5098558;28;20020;-63
2021/05/30 04:36:55;;;;;;;32.95;16.42;;;;;;;;;;5116817;28;20035;-62
2021/05/30 04:39:20;;;;;;;35.15;15.02;;;;;;;;;;5116940;28;20037;-62
2021/05/30 04:41:45;;;;;;;31.60;15.30;;;;;;;;;;5116823;28;20073;-63
2021/05/30 04:44:11;;;;;;;32.38;14.35;;;;;;;;;;5116620;28;20028;-63
2021/05/30 04:46:36;;;;;;;25.98;12.85;;;;;;;;;;5116574;28;20462;-63
2021/05/30 04:49:01;;;;;;;25.80;12.68;;;;;;;;;;5116194;28;20022;-62
2021/05/30 04:51:27;;;;;;;32.97;12.05;;;;;;;;;;5116525;28;20130;-63
2021/05/30 04:53:54;;;;;;;29.88;11.32;;;;;;;;;;5116217;28;20019;-63
2021/05/30 04:56:21;;;;;;;335.70;31.05;;;;;;;;;;5116507;28;20019;-63
2021/05/30 04:58:47;;;;;;;754.78;51.10;;;;;;;;;;5116214;28;20035;-63
2021/05/30 05:01:12;;;;;;;1036.28;72.75;;;;;;;;;;5116350;28;20452;-63
2021/05/30 05:03:37;;;;;;;1999.90;172.52;;;;;;;;;;5116152;28;20024;-63
2021/05/30 05:06:03;;;;;;;179.13;21.65;;;;;;;;;;5115979;28;20039;-63
2021/05/30 05:08:28;;;;;;;896.03;87.10;;;;;;;;;;5116073;28;20027;-63
2021/05/30 05:10:54;;;;;;;1302.63;112.82;;;;;;;;;;5115620;28;20040;-63
2021/05/30 05:13:19;;;;;;;322.13;30.02;;;;;;;;;;5116056;28;20027;-64
2021/05/30 05:15:48;;;;;;;167.10;19.65;;;;;;;;;;5115928;28;20011;-64
2021/05/30 05:18:14;;;;;;;73.35;12.23;;;;;;;;;;5115979;28;20016;-63
2021/05/30 05:20:40;;;;;;;164.15;23.52;;;;;;;;;;5115920;28;20372;-63
2021/05/30 05:23:05;;;;;;;22.92;6.53;;;;;;;;;;5115926;28;20020;-63
2021/05/30 05:25:34;;;;;;;8.80;4.90;;;;;;;;;;5115644;28;20068;-63
2021/05/30 05:27:59;;;;;;;11.98;5.82;;;;;;;;;;5115354;28;20391;-64
2021/05/30 05:30:25;;;;;;;6.93;4.43;;;;;;;;;;5100727;28;20115;-64
2021/05/30 05:32:50;;;;;;;6.50;4.40;;;;;;;;;;5095226;28;20016;-64
2021/05/30 05:35:15;;;;;;;5.85;4.55;;;;;;;;;;5095344;28;20040;-64
2021/05/30 05:37:41;;;;;;;5.68;3.80;;;;;;;;;;5094353;28;20095;-63
2021/05/30 05:40:07;;;;;;;6.82;3.47;;;;;;;;;;5095325;28;20470;-64
2021/05/30 05:42:34;;;;;;;8.15;3.65;;;;;;;;;;5095048;28;20036;-64
2021/05/30 05:44:59;;;;;;;5.60;3.63;;;;;;;;;;5095042;28;20043;-64
2021/05/30 05:47:24;;;;;;;4.13;2.92;;;;;;;;;;5095238;28;20020;-64
2021/05/30 05:49:50;;;;;;;4.15;3.22;;;;;;;;;;5094776;28;20036;-64
2021/05/30 05:52:15;;;;;;;4.47;3.50;;;;;;;;;;5094982;28;20028;-64
2021/05/30 05:54:40;;;;;;;7.55;3.58;;;;;;;;;;5094922;28;20096;-64
2021/05/30 05:57:06;;;;;;;6.75;2.95;;;;;;;;;;5094859;28;20024;-64
2021/05/30 05:59:31;;;;;;;5.63;2.67;;;;;;;;;;5094694;28;20028;-64
2021/05/30 06:01:56;;;;;;;4.45;3.00;;;;;;;;;;5094791;28;20071;-64
2021/05/30 06:04:21;;;;;;;5.47;3.05;;;;;;;;;;5094697;28;20451;-64
2021/05/30 06:06:47;;;;;;;4.53;2.92;;;;;;;;;;5094340;28;20020;-64
2021/05/30 06:09:12;;;;;;;4.75;3.00;;;;;;;;;;5094502;28;20024;-65
2021/05/30 06:11:37;;;;;;;5.05;3.00;;;;;;;;;;5094570;28;20044;-64
2021/05/30 06:14:03;;;;;;;4.28;2.90;;;;;;;;;;5094705;28;20016;-65
2021/05/30 06:16:28;;;;;;;4.07;2.97;;;;;;;;;;5094609;28;20020;-64
2021/05/30 06:18:54;;;;;;;3.38;2.40;;;;;;;;;;5094236;28;20419;-64
2021/05/30 06:21:20;;;;;;;4.35;2.40;;;;;;;;;;5094426;28;20133;-65
2021/05/30 06:23:45;;;;;;;6.45;2.42;;;;;;;;;;5094309;28;20022;-65
2021/05/30 06:26:11;;;;;;;3.75;2.65;;;;;;;;;;5094271;28;20383;-65
2021/05/30 06:28:36;;;;;;;5.47;2.35;;;;;;;;;;5094204;28;20016;-65
2021/05/30 06:31:01;;;;;;;4.53;2.15;;;;;;;;;;5114150;28;20038;-65
2021/05/30 06:33:27;;;;;;;3.10;2.60;;;;;;;;;;5114653;28;20028;-65
2021/05/30 06:35:52;;;;;;;4.47;2.55;;;;;;;;;;5114486;28;20060;-65
2021/05/30 06:38:17;;;;;;;4.28;2.60;;;;;;;;;;5114096;28;20055;-65
2021/05/30 06:40:42;;;;;;;4.78;2.47;;;;;;;;;;5114371;28;20034;-65
2021/05/30 06:43:10;;;;;;;4.05;2.72;;;;;;;;;;5114022;28;20054;-65
2021/05/30 06:45:36;;;;;;;3.35;2.40;;;;;;;;;;5114345;28;20016;-65
2021/05/30 06:48:01;;;;;;;3.10;2.58;;;;;;;;;;5114110;28;20027;-65
2021/05/30 06:50:26;;;;;;;3.17;2.60;;;;;;;;;;5095892;28;20055;-65
2021/05/30 06:52:52;;;;;;;5.00;3.15;;;;;;;;;;5113830;28;20456;-65
2021/05/30 06:55:20;;;;;;;5.22;2.80;;;;;;;;;;5114112;28;20038;-65
2021/05/30 06:57:45;;;;;;;3.95;3.30;;;;;;;;;;5113844;28;20023;-65
2021/05/30 07:00:11;;;;;;;6.90;3.33;;;;;;;;;;5113931;28;20020;-65
2021/05/30 07:02:36;;;;;;;4.43;3.08;;;;;;;;;;5114039;28;20466;-65
2021/05/30 07:05:02;;;;;;;5.60;3.33;;;;;;;;;;5113846;28;20029;-65
2021/05/30 07:07:28;;;;;;;4.70;3.83;;;;;;;;;;5114399;28;20240;-65
2021/05/30 07:09:53;;;;;;;8.20;3.60;;;;;;;;;;5113773;28;20058;-65
2021/05/30 07:12:18;;;;;;;5.13;3.30;;;;;;;;;;5113906;28;20053;-66
2021/05/30 07:14:43;;;;;;;4.28;3.22;;;;;;;;;;5113854;28;20251;-65
2021/05/30 07:17:09;;;;;;;4.90;3.20;;;;;;;;;;5113850;28;20401;-66
2021/05/30 07:19:34;;;;;;;4.90;3.20;;;;;;;;;;5113579;28;20023;-66
2021/05/30 07:21:59;;;;;;;4.85;3.63;;;;;;;;;;5113730;28;20020;-65
2021/05/30 07:24:25;;;;;;;5.13;3.60;;;;;;;;;;5113657;28;20391;-66
2021/05/30 07:26:50;;;;;;;4.93;3.78;;;;;;;;;;5113672;28;20027;-66
2021/05/30 07:29:16;;;;;;;4.90;3.63;;;;;;;;;;5108398;28;20495;-66
2021/05/30 07:31:42;;;;;;;5.75;3.70;;;;;;;;;;5093084;28;20128;-65
2021/05/30 07:34:07;;;;;;;5.22;3.38;;;;;;;;;;5095628;28;20062;-66
2021/05/30 07:36:32;;;;;;;5.68;3.63;;;;;;;;;;5113720;28;20096;-65
2021/05/30 07:38:58;;;;;;;7.43;4.07;;;;;;;;;;5113186;28;20027;-65
2021/05/30 07:41:23;;;;;;;4.60;3.40;;;;;;;;;;5113336;28;20038;-66
2021/05/30 07:43:49;;;;;;;5.57;3.20;;;;;;;;;;5113047;28;20015;-66
2021/05/30 07:46:14;;;;;;;6.57;3.70;;;;;;;;;;5113525;28;20032;-66
2021/05/30 07:48:39;;;;;;;6.93;3.50;;;;;;;;;;5112153;28;20045;-66
2021/05/30 07:51:05;;;;;;;4.90;3.85;;;;;;;;;;5113154;28;20472;-65
2021/05/30 07:53:30;;;;;;;5.10;3.47;;;;;;;;;;5113311;28;20031;-66
2021/05/30 07:55:55;;;;;;;4.07;3.55;;;;;;;;;;5113400;28;20478;-66
2021/05/30 07:58:21;;;;;;;4.35;3.45;;;;;;;;;;5113365;28;20027;-66
2021/05/30 08:00:46;;;;;;;5.25;3.95;;;;;;;;;;5113470;28;20365;-66
2021/05/30 08:03:11;;;;;;;4.45;3.15;;;;;;;;;;5117320;28;20383;-66
2021/05/30 08:05:37;;;;;;;4.77;3.57;;;;;;;;;;5117504;28;20023;-66
2021/05/30 08:08:02;;;;;;;6.00;3.97;;;;;;;;;;5117201;28;20268;-66
2021/05/30 08:10:29;;;;;;;4.80;3.55;;;;;;;;;;5117100;28;20287;-66
2021/05/30 08:12:54;;;;;;;5.07;3.88;;;;;;;;;;5117118;28;20015;-66
2021/05/30 08:15:19;;;;;;;5.60;3.55;;;;;;;;;;5117343;28;20039;-66
2021/05/30 08:17:46;;;;;;;5.30;4.18;;;;;;;;;;5117140;28;20030;-66
2021/05/30 08:20:13;;;;;;;5.82;4.20;;;;;;;;;;5116961;28;20027;-66
2021/05/30 08:22:38;;;;;;;5.85;4.15;;;;;;;;;;5117057;28;20043;-65
2021/05/30 08:25:04;;;;;;;8.00;4.25;;;;;;;;;;5114014;28;20023;-65
2021/05/30 08:27:29;;;;;;;6.30;4.80;;;;;;;;;;5096387;28;20024;-66
2021/05/30 08:29:55;;;;;;;5.90;4.40;;;;;;;;;;5107045;28;20050;-65
2021/05/30 08:32:21;;;;;;;5.07;4.13;;;;;;;;;;5117013;28;20065;-65
2021/05/30 08:34:47;;;;;;;5.75;4.60;;;;;;;;;;5116645;28;20238;-66
2021/05/30 08:37:13;;;;;;;5.75;4.10;;;;;;;;;;5116792;28;20088;-64
2021/05/30 08:39:39;;;;;;;6.15;4.55;;;;;;;;;;5097443;28;20452;-66
2021/05/30 08:42:04;;;;;;;5.93;4.50;;;;;;;;;;5114351;28;20031;-65
2021/05/30 08:44:29;;;;;;;6.05;4.90;;;;;;;;;;5113101;28;20028;-65
2021/05/30 08:46:55;;;;;;;5.30;4.65;;;;;;;;;;5100722;28;20024;-65
2021/05/30 08:49:20;;;;;;;5.40;4.75;;;;;;;;;;5104673;28;20341;-66
2021/05/30 08:51:45;;;;;;;7.68;4.82;;;;;;;;;;5099982;28;20035;-65
2021/05/30 08:54:14;;;;;;;7.65;5.70;;;;;;;;;;5109643;28;20054;-65
2021/05/30 08:56:42;;;;;;;6.68;5.32;;;;;;;;;;5107911;28;20015;-64
2021/05/30 08:59:15;;;;;;;5.75;5.10;;;;;;;;;;5110339;28;20024;-65
2021/05/30 09:01:44;;;;;;;7.65;4.50;;;;;;;;;;5103728;28;20039;-66
2021/05/30 09:04:10;;;;;;;6.85;4.70;;;;;;;;;;5104341;28;20408;-65
2021/05/30 09:06:36;;;;;;;7.90;4.55;;;;;;;;;;5105709;28;20007;-65
2021/05/30 09:09:04;;;;;;;6.78;4.72;;;;;;;;;;5108897;28;20022;-65
2021/05/30 09:11:55;;;;;;;5.93;4.47;;;;;;;;;;5106227;28;20034;-65
2021/05/30 09:14:24;;;;;;;4.90;4.38;;;;;;;;;;5097990;28;20532;-65
2021/05/30 09:16:54;;;;;;;5.43;4.00;;;;;;;;;;5104584;28;20054;-65
2021/05/30 09:19:38;;;;;;;5.10;4.20;;;;;;;;;;5111251;28;20015;-65
2021/05/30 09:22:22;;;;;;;6.03;4.82;;;;;;;;;;5099941;28;20115;-65
2021/05/30 09:24:47;;;;;;;5.88;4.10;;;;;;;;;;5105147;28;20379;-65
2021/05/30 09:27:13;;;;;;;10.10;4.50;;;;;;;;;;5105818;28;20038;-65
2021/05/30 09:29:38;;;;;;;8.02;4.82;;;;;;;;;;5104388;28;20702;-65
2021/05/30 09:32:04;;;;;;;9.90;5.07;;;;;;;;;;5107089;28;20453;-65
2021/05/30 09:34:30;;;;;;;5.22;4.38;;;;;;;;;;5106360;28;20050;-65
2021/05/30 09:36:56;;;;;;;7.22;5.20;;;;;;;;;;5100323;28;20089;-65
2021/05/30 09:39:36;;;;;;;6.30;4.32;;;;;;;;;;5111446;28;20460;-65
2021/05/30 09:42:21;;;;;;;7.45;5.15;;;;;;;;;;5101949;28;20039;-65
2021/05/30 09:44:56;;;;;;;6.15;4.18;;;;;;;;;;5100320;28;20040;-65
2021/05/30 09:47:46;;;;;;;7.97;5.05;;;;;;;;;;5111724;28;20125;-65
2021/05/30 09:50:12;;;;;;;8.40;5.00;;;;;;;;;;5103603;28;20032;-65
2021/05/30 09:52:38;;;;;;;7.10;4.95;;;;;;;;;;5101937;28;20035;-65
2021/05/30 09:55:17;;;;;;;7.82;5.97;;;;;;;;;;5093678;28;20472;-65
2021/05/30 09:58:02;;;;;;;9.15;6.57;;;;;;;;;;5094380;28;20032;-64
2021/05/30 10:00:27;;;;;;;6.95;6.18;;;;;;;;;;5093880;28;20036;-65
2021/05/30 10:02:53;;;;;;;7.75;4.82;;;;;;;;;;5093883;28;20047;-65
2021/05/30 10:05:18;;;;;;;6.97;5.63;;;;;;;;;;5094376;28;20085;-65
2021/05/30 10:07:44;;;;;;;6.70;5.65;;;;;;;;;;5094451;28;20024;-64
2021/05/30 10:10:09;;;;;;;7.75;5.22;;;;;;;;;;5086476;28;20048;-64
2021/05/30 10:12:35;;;;;;;9.30;5.53;;;;;;;;;;5088605;28;20448;-64
2021/05/30 10:15:01;;;;;;;7.57;5.25;;;;;;;;;;5093723;28;20098;-64
2021/05/30 10:17:27;;;;;;;6.53;5.38;;;;;;;;;;5112282;28;20039;-64
2021/05/30 10:19:53;;;;;;;8.02;6.15;;;;;;;;;;5111917;28;20356;-64
2021/05/30 10:22:18;;;;;;;8.70;6.90;;;;;;;;;;5112197;28;20119;-64
2021/05/30 10:24:44;;;;;;;8.43;6.68;;;;;;;;;;5111633;28;20027;-65
2021/05/30 10:27:18;;;;;;;7.32;5.20;;;;;;;;;;5112217;28;20436;-65
2021/05/30 10:30:02;;;;;;;8.27;5.63;;;;;;;;;;5102111;28;20051;-64
2021/05/30 10:32:27;;;;;;;7.10;4.90;;;;;;;;;;5094190;28;20059;-65
2021/05/30 10:35:12;;;;;;;10.55;6.55;;;;;;;;;;5092778;28;20039;-64
2021/05/30 10:37:47;;;;;;;8.00;6.60;;;;;;;;;;5094181;28;20067;-64
2021/05/30 10:40:22;;;;;;;8.15;5.22;;;;;;;;;;5092675;28;20138;-63
2021/05/30 10:43:06;;;;;;;7.03;5.75;;;;;;;;;;5093677;28;20107;-64
2021/05/30 10:45:32;;;;;;;7.28;5.25;;;;;;;;;;5093477;28;20024;-64
2021/05/30 10:48:03;;;;;;;10.68;4.75;;;;;;;;;;5093739;28;20103;-64
2021/05/30 10:50:36;;;;;;;8.20;4.35;;;;;;;;;;5093373;28;20360;-64
2021/05/30 10:53:02;;;;;;;6.78;4.80;;;;;;;;;;5092928;28;20028;-63
2021/05/30 10:55:28;;;;;;;6.45;3.80;;;;;;;;;;5093422;28;20085;-63
2021/05/30 10:57:53;;;;;;;8.13;5.72;;;;;;;;;;5093706;28;20475;-64
2021/05/30 11:00:19;;;;;;;8.15;5.28;;;;;;;;;;5093544;28;20051;-63
2021/05/30 11:03:08;;;;;;;10.20;7.38;;;;;;;;;;5093644;28;20030;-64
2021/05/30 11:05:50;;;;;;;9.05;6.60;;;;;;;;;;5093317;28;20121;-64
2021/05/30 11:08:31;;;;;;;14.40;8.82;;;;;;;;;;5093284;28;20431;-64
2021/05/30 11:11:11;;;;;;;10.30;7.47;;;;;;;;;;5092670;28;20097;-64
2021/05/30 11:13:55;;;;;;;14.73;9.98;;;;;;;;;;5093252;28;20032;-63
2021/05/30 11:16:24;;;;;;;17.15;9.45;;;;;;;;;;5093046;28;20465;-63
2021/05/30 11:18:56;;;;;;;12.70;9.32;;;;;;;;;;5097395;28;20476;-63
2021/05/30 11:21:24;;;;;;;12.52;9.02;;;;;;;;;;5101236;28;20152;-64
2021/05/30 11:23:50;;;;;;;13.05;8.40;;;;;;;;;;5093067;28;20067;-64
2021/05/30 11:26:15;;;;;;;11.95;9.00;;;;;;;;;;5095118;28;20051;-64
2021/05/30 11:28:45;;;;;;;14.52;9.52;;;;;;;;;;5110146;28;20172;-65
2021/05/30 11:31:11;;;;;;;12.75;7.68;;;;;;;;;;5101830;28;20365;-66
2021/05/30 11:33:41;;;;;;;14.13;8.85;;;;;;;;;;5110514;28;20022;-66
2021/05/30 11:36:18;;;;;;;14.02;9.38;;;;;;;;;;5112769;28;20043;-66
2021/05/30 11:38:44;;;;;;;13.25;9.07;;;;;;;;;;5107939;28;20479;-66
2021/05/30 11:41:24;;;;;;;12.90;9.60;;;;;;;;;;5101731;28;20376;-65
2021/05/30 11:44:12;;;;;;;15.40;10.02;;;;;;;;;;5102199;28;20020;-64
2021/05/30 11:46:43;;;;;;;18.27;10.73;;;;;;;;;;5094482;28;20039;-65
2021/05/30 11:49:15;;;;;;;12.55;9.43;;;;;;;;;;5101123;28;20023;-65
2021/05/30 11:51:42;;;;;;;13.60;9.73;;;;;;;;;;5098859;28;20410;-65
2021/05/30 11:54:07;;;;;;;14.13;9.52;;;;;;;;;;5103672;28;20063;-63
2021/05/30 11:56:36;;;;;;;13.88;9.98;;;;;;;;;;5104661;28;20047;-63
2021/05/30 11:59:01;;;;;;;15.25;11.32;;;;;;;;;;5108025;28;20373;-63
2021/05/30 12:01:27;;;;;;;15.30;10.13;;;;;;;;;;5092913;28;20040;-63
2021/05/30 12:03:52;;;;;;;14.63;10.02;;;;;;;;;;5088457;28;20023;-63
2021/05/30 12:06:17;;;;;;;16.98;10.75;;;;;;;;;;5113113;28;20511;-63
2021/05/30 12:08:53;;;;;;;19.33;11.38;;;;;;;;;;5111115;28;20032;-63
2021/05/30 12:11:18;;;;;;;16.35;10.10;;;;;;;;;;5092213;28;20076;-63
2021/05/30 12:13:44;;;;;;;16.13;10.07;;;;;;;;;;5096936;28;20059;-63
2021/05/30 12:16:27;;;;;;;15.30;10.35;;;;;;;;;;5112360;28;20050;-63
2021/05/30 12:18:53;;;;;;;22.23;10.55;;;;;;;;;;5106558;28;20028;-63
2021/05/30 12:21:19;;;;;;;13.90;9.55;;;;;;;;;;5101507;28;20032;-63
2021/05/30 12:23:45;;;;;;;14.38;9.85;;;;;;;;;;5102186;28;20087;-63
2021/05/30 12:26:11;;;;;;;10.55;8.55;;;;;;;;;;5099459;28;20058;-63
2021/05/30 12:28:39;;;;;;;10.68;7.63;;;;;;;;;;5100579;28;20027;-65
2021/05/30 12:31:05;;;;;;;11.57;8.63;;;;;;;;;;5102844;28;20019;-65
2021/05/30 12:33:49;;;;;;;10.95;7.25;;;;;;;;;;5096972;28;20286;-65
2021/05/30 12:36:15;;;;;;;11.10;7.55;;;;;;;;;;5091930;28;20118;-65
2021/05/30 12:38:40;;;;;;;12.18;7.65;;;;;;;;;;5092328;28;20115;-65
2021/05/30 12:41:12;;;;;;;11.88;7.93;;;;;;;;;;5102011;28;20127;-63
2021/05/30 12:43:40;;;;;;;11.55;8.38;;;;;;;;;;5112628;28;20099;-65
2021/05/30 12:46:06;;;;;;;12.88;7.80;;;;;;;;;;5109956;28;20032;-65
2021/05/30 12:48:37;;;;;;;9.15;7.20;;;;;;;;;;5105855;28;20043;-65
2021/05/30 12:51:10;;;;;;;9.70;6.93;;;;;;;;;;5106856;28;20157;-65
2021/05/30 12:53:35;;;;;;;9.93;7.18;;;;;;;;;;5107239;28;20019;-65
2021/05/30 12:56:13;;;;;;;10.02;6.93;;;;;;;;;;5115252;28;20027;-63
2021/05/30 12:58:38;;;;;;;10.77;7.10;;;;;;;;;;5103825;28;20479;-63
2021/05/30 13:01:18;;;;;;;10.20;7.75;;;;;;;;;;5106533;28;20039;-63
2021/05/30 13:03:43;;;;;;;9.85;7.05;;;;;;;;;;5095848;28;20024;-63
2021/05/30 13:06:09;;;;;;;12.60;6.32;;;;;;;;;;5090044;28;20042;-62
2021/05/30 13:08:34;;;;;;;9.68;6.65;;;;;;;;;;5097455;28;20456;-63
2021/05/30 13:11:05;;;;;;;9.57;6.65;;;;;;;;;;5101984;28;20113;-63
2021/05/30 13:13:32;;;;;;;9.20;6.80;;;;;;;;;;5106539;28;20484;-62
2021/05/30 13:15:58;;;;;;;8.63;6.05;;;;;;;;;;5105613;28;20023;-63
2021/05/30 13:18:24;;;;;;;10.73;6.15;;;;;;;;;;5100489;28;20032;-63
2021/05/30 13:20:52;;;;;;;11.48;6.55;;;;;;;;;;5102903;28;20074;-63
2021/05/30 13:23:18;;;;;;;7.57;4.93;;;;;;;;;;5096566;28;20032;-63
2021/05/30 13:25:48;;;;;;;9.05;6.18;;;;;;;;;;5108626;28;20450;-63
2021/05/30 13:28:24;;;;;;;10.10;6.40;;;;;;;;;;5095778;28;20506;-62
2021/05/30 13:30:52;;;;;;;8.35;5.63;;;;;;;;;;5102912;28;20031;-63
2021/05/30 13:33:17;;;;;;;11.90;6.03;;;;;;;;;;5105218;28;20037;-63
2021/05/30 13:35:44;;;;;;;15.65;6.30;;;;;;;;;;5110957;28;20027;-63
2021/05/30 13:38:09;;;;;;;7.13;5.60;;;;;;;;;;5112043;28;20042;-63
2021/05/30 13:40:35;;;;;;;8.88;4.60;;;;;;;;;;5105557;28;20040;-63
2021/05/30 13:43:01;;;;;;;6.22;4.55;;;;;;;;;;5091487;28;20024;-63
2021/05/30 13:45:26;;;;;;;7.10;4.57;;;;;;;;;;5091501;28;20037;-62
2021/05/30 13:47:51;;;;;;;7.53;4.40;;;;;;;;;;5106657;28;20412;-63
2021/05/30 13:50:16;;;;;;;7.50;4.50;;;;;;;;;;5096443;28;20098;-63
2021/05/30 13:52:42;;;;;;;6.50;3.65;;;;;;;;;;5104464;28;20480;-63
2021/05/30 13:55:07;;;;;;;5.10;3.17;;;;;;;;;;5104834;28;20118;-63
2021/05/30 13:57:32;;;;;;;4.00;2.60;;;;;;;;;;5097141;28;20039;-62
2021/05/30 13:59:58;;;;;;;5.57;2.55;;;;;;;;;;5093076;28;20024;-63
2021/05/30 14:02:26;;;;;;;5.43;3.30;;;;;;;;;;5105398;28;20043;-65
2021/05/30 14:04:51;;;;;;;5.30;3.60;;;;;;;;;;5098278;28;20036;-65
2021/05/30 14:07:17;;;;;;;5.55;4.30;;;;;;;;;;5101041;28;20031;-65
2021/05/30 14:09:43;;;;;;;5.60;3.95;;;;;;;;;;5101076;28;20047;-64
2021/05/30 14:12:08;;;;;;;5.43;3.28;;;;;;;;;;5101051;28;20403;-65
2021/05/30 14:14:35;;;;;;;4.53;2.75;;;;;;;;;;5094183;28;20052;-62
2021/05/30 14:17:00;;;;;;;5.75;3.70;;;;;;;;;;5093911;28;20028;-63
2021/05/30 14:19:26;;;;;;;5.45;3.67;;;;;;;;;;5092453;28;20020;-62
2021/05/30 14:21:51;;;;;;;5.22;3.22;;;;;;;;;;5100344;28;20383;-62
2021/05/30 14:24:16;;;;;;;5.45;3.80;;;;;;;;;;5105989;28;20034;-62
2021/05/30 14:26:41;;;;;;;4.82;3.03;;;;;;;;;;5094216;28;20474;-62
2021/05/30 14:29:07;;;;;;;5.18;3.08;;;;;;;;;;5104530;28;20027;-62
2021/05/30 14:31:32;;;;;;;4.38;3.00;;;;;;;;;;5109525;28;20484;-62
2021/05/30 14:33:57;;;;;;;3.60;2.35;;;;;;;;;;5109868;28;20296;-62